DLH4MW EDDF-EDDM
Flight info
| Callsign | DLH4MW |
|---|---|
| Flight time | 0h 48m |
| Altitude | 21000 |
| Route | CINDY8S/18 CINDY Z74 HAREM T104 ROKIL ROKIL1B |
| Aircraft | A321/M-SDE2E3FGIJ1LORWXYZ/HB1 |
Departure
| Time | 2026-05-07 16:44 |
|---|---|
| Airport | Frankfurt Main Airport (EDDF) |
Arrival
| Time | 2026-05-07 17:32 |
|---|---|
| Airport | Munich Airport (EDDM) |
| Time | Latitude | Longitude | Altitude | Speed | Heading |
|---|---|---|---|---|---|
| 2026-05-07 15:53 | 50.04608 | 8.56771 | 361 ft | 0 kts | 295° |
| 2026-05-07 15:54 | 50.04608 | 8.56772 | 360 ft | 0 kts | 294° |
| 2026-05-07 16:31 | 50.04605 | 8.56780 | 356 ft | 4 kts | 294° |
| 2026-05-07 16:31 | 50.04595 | 8.56817 | 363 ft | 4 kts | 293° |
| 2026-05-07 16:31 | 50.04586 | 8.56848 | 363 ft | 4 kts | 290° |
| 2026-05-07 16:32 | 50.04584 | 8.56881 | 363 ft | 4 kts | 237° |
| 2026-05-07 16:32 | 50.04602 | 8.56906 | 363 ft | 4 kts | 204° |
| 2026-05-07 16:32 | 50.04625 | 8.56918 | 360 ft | 4 kts | 194° |
| 2026-05-07 16:32 | 50.04648 | 8.56932 | 359 ft | 3 kts | 206° |
| 2026-05-07 16:33 | 50.04652 | 8.56935 | 363 ft | 0 kts | 206° |
| 2026-05-07 16:37 | 50.04646 | 8.56930 | 358 ft | 2 kts | 206° |
| 2026-05-07 16:37 | 50.04621 | 8.56917 | 361 ft | 7 kts | 197° |
| 2026-05-07 16:38 | 50.04562 | 8.56892 | 359 ft | 8 kts | 192° |
| 2026-05-07 16:38 | 50.04504 | 8.56876 | 359 ft | 9 kts | 194° |
| 2026-05-07 16:38 | 50.04454 | 8.56813 | 361 ft | 10 kts | 243° |
| 2026-05-07 16:38 | 50.04422 | 8.56696 | 359 ft | 13 kts | 250° |
| 2026-05-07 16:39 | 50.04387 | 8.56551 | 361 ft | 15 kts | 249° |
| 2026-05-07 16:39 | 50.04346 | 8.56383 | 358 ft | 18 kts | 249° |
| 2026-05-07 16:39 | 50.04300 | 8.56194 | 357 ft | 20 kts | 249° |
| 2026-05-07 16:39 | 50.04251 | 8.55985 | 362 ft | 21 kts | 250° |
| 2026-05-07 16:40 | 50.04198 | 8.55760 | 353 ft | 23 kts | 250° |
| 2026-05-07 16:40 | 50.04139 | 8.55520 | 359 ft | 24 kts | 250° |
| 2026-05-07 16:40 | 50.04080 | 8.55270 | 361 ft | 24 kts | 249° |
| 2026-05-07 16:40 | 50.04021 | 8.55025 | 359 ft | 24 kts | 251° |
| 2026-05-07 16:41 | 50.03962 | 8.54772 | 357 ft | 26 kts | 249° |
| 2026-05-07 16:41 | 50.03896 | 8.54502 | 353 ft | 28 kts | 248° |
| 2026-05-07 16:41 | 50.03806 | 8.54238 | 351 ft | 28 kts | 244° |
| 2026-05-07 16:41 | 50.03734 | 8.53948 | 351 ft | 29 kts | 250° |
| 2026-05-07 16:42 | 50.03664 | 8.53659 | 347 ft | 27 kts | 250° |
| 2026-05-07 16:42 | 50.03594 | 8.53380 | 337 ft | 28 kts | 249° |
| 2026-05-07 16:42 | 50.03527 | 8.53100 | 334 ft | 24 kts | 250° |
| 2026-05-07 16:42 | 50.03468 | 8.52852 | 333 ft | 25 kts | 250° |
| 2026-05-07 16:43 | 50.03407 | 8.52622 | 333 ft | 17 kts | 234° |
| 2026-05-07 16:43 | 50.03275 | 8.52592 | 333 ft | 37 kts | 180° |
| 2026-05-07 16:43 | 50.02742 | 8.52599 | 336 ft | 114 kts | 179° |
| 2026-05-07 16:43 | 50.01739 | 8.52606 | 390 ft | 167 kts | 180° |
| 2026-05-07 16:44 | 50.00561 | 8.52620 | 1066 ft | 171 kts | 180° |
| 2026-05-07 16:44 | 49.99345 | 8.52653 | 1715 ft | 181 kts | 179° |
| 2026-05-07 16:44 | 49.98006 | 8.52678 | 2054 ft | 203 kts | 176° |
| 2026-05-07 16:44 | 49.96620 | 8.53416 | 2290 ft | 225 kts | 142° |
| 2026-05-07 16:45 | 49.95619 | 8.55412 | 2535 ft | 249 kts | 118° |
| 2026-05-07 16:45 | 49.94746 | 8.57840 | 3201 ft | 262 kts | 118° |
| 2026-05-07 16:45 | 49.93867 | 8.60315 | 4073 ft | 268 kts | 118° |
| 2026-05-07 16:45 | 49.92945 | 8.62915 | 4957 ft | 274 kts | 118° |
| 2026-05-07 16:46 | 49.92031 | 8.65485 | 5768 ft | 277 kts | 119° |
| 2026-05-07 16:46 | 49.91089 | 8.68123 | 6590 ft | 281 kts | 119° |
| 2026-05-07 16:46 | 49.90132 | 8.70793 | 7394 ft | 284 kts | 119° |
| 2026-05-07 16:46 | 49.89159 | 8.73488 | 8186 ft | 288 kts | 119° |
| 2026-05-07 16:47 | 49.88171 | 8.76215 | 8985 ft | 292 kts | 119° |
| 2026-05-07 16:47 | 49.87171 | 8.78981 | 9764 ft | 296 kts | 119° |
| 2026-05-07 16:47 | 49.86156 | 8.81794 | 10366 ft | 306 kts | 119° |
| 2026-05-07 16:47 | 49.85077 | 8.84784 | 10557 ft | 329 kts | 120° |
| 2026-05-07 16:48 | 49.83933 | 8.87940 | 10984 ft | 341 kts | 120° |
| 2026-05-07 16:48 | 49.82762 | 8.91163 | 11626 ft | 345 kts | 120° |
| 2026-05-07 16:48 | 49.81580 | 8.94420 | 12316 ft | 348 kts | 120° |
| 2026-05-07 16:48 | 49.80386 | 8.97707 | 13009 ft | 352 kts | 120° |
| 2026-05-07 16:49 | 49.79180 | 9.01018 | 13721 ft | 355 kts | 119° |
| 2026-05-07 16:49 | 49.77958 | 9.04361 | 14347 ft | 359 kts | 120° |
| 2026-05-07 16:49 | 49.76741 | 9.07755 | 14941 ft | 363 kts | 116° |
| 2026-05-07 16:49 | 49.75844 | 9.11415 | 15507 ft | 367 kts | 104° |
| 2026-05-07 16:50 | 49.75202 | 9.15258 | 16105 ft | 371 kts | 108° |
| 2026-05-07 16:50 | 49.74179 | 9.18930 | 16695 ft | 374 kts | 120° |
| 2026-05-07 16:50 | 49.72703 | 9.22261 | 17280 ft | 377 kts | 131° |
| 2026-05-07 16:50 | 49.70969 | 9.25324 | 17869 ft | 380 kts | 132° |
| 2026-05-07 16:51 | 49.69221 | 9.28409 | 18434 ft | 384 kts | 132° |
| 2026-05-07 16:51 | 49.67461 | 9.31522 | 18955 ft | 386 kts | 132° |
| 2026-05-07 16:51 | 49.65705 | 9.34622 | 19472 ft | 389 kts | 132° |
| 2026-05-07 16:51 | 49.63919 | 9.37763 | 20004 ft | 391 kts | 132° |
| 2026-05-07 16:52 | 49.62114 | 9.40932 | 20543 ft | 393 kts | 132° |
| 2026-05-07 16:52 | 49.60301 | 9.44114 | 20952 ft | 396 kts | 132° |
| 2026-05-07 16:52 | 49.58491 | 9.47293 | 21048 ft | 391 kts | 132° |
| 2026-05-07 16:52 | 49.56718 | 9.50416 | 21051 ft | 385 kts | 133° |
| 2026-05-07 16:53 | 49.54959 | 9.53512 | 21054 ft | 384 kts | 133° |
| 2026-05-07 16:53 | 49.53200 | 9.56599 | 21057 ft | 383 kts | 133° |
| 2026-05-07 16:53 | 49.51442 | 9.59682 | 21057 ft | 383 kts | 133° |
| 2026-05-07 16:53 | 49.49682 | 9.62760 | 21057 ft | 383 kts | 133° |
| 2026-05-07 16:54 | 49.47924 | 9.65832 | 21056 ft | 383 kts | 133° |
| 2026-05-07 16:54 | 49.46161 | 9.68907 | 21055 ft | 383 kts | 133° |
| 2026-05-07 16:54 | 49.44400 | 9.71971 | 21056 ft | 383 kts | 133° |
| 2026-05-07 16:54 | 49.42637 | 9.75033 | 21056 ft | 383 kts | 133° |
| 2026-05-07 16:55 | 49.40871 | 9.78096 | 21058 ft | 383 kts | 133° |
| 2026-05-07 16:55 | 49.39107 | 9.81160 | 21060 ft | 383 kts | 133° |
| 2026-05-07 16:55 | 49.37342 | 9.84227 | 21063 ft | 383 kts | 133° |
| 2026-05-07 16:55 | 49.35570 | 9.87296 | 21056 ft | 384 kts | 133° |
| 2026-05-07 16:56 | 49.33797 | 9.90359 | 21052 ft | 384 kts | 133° |
| 2026-05-07 16:56 | 49.32018 | 9.93425 | 21050 ft | 385 kts | 133° |
| 2026-05-07 16:56 | 49.28456 | 9.99555 | 21041 ft | 385 kts | 133° |
| 2026-05-07 16:57 | 49.26673 | 10.02617 | 21044 ft | 386 kts | 133° |
| 2026-05-07 16:57 | 49.24884 | 10.05684 | 21045 ft | 386 kts | 134° |
| 2026-05-07 16:57 | 49.23118 | 10.08705 | 21048 ft | 386 kts | 134° |
| 2026-05-07 16:57 | 49.21326 | 10.11769 | 21051 ft | 387 kts | 134° |
| 2026-05-07 16:58 | 49.19533 | 10.14839 | 21064 ft | 387 kts | 133° |
| 2026-05-07 16:58 | 49.17740 | 10.17906 | 21069 ft | 387 kts | 134° |
| 2026-05-07 16:58 | 49.15947 | 10.20965 | 21067 ft | 387 kts | 134° |
| 2026-05-07 16:58 | 49.14150 | 10.24027 | 21066 ft | 387 kts | 134° |
| 2026-05-07 16:59 | 49.12330 | 10.27060 | 21060 ft | 388 kts | 134° |
| 2026-05-07 16:59 | 49.10481 | 10.30060 | 21075 ft | 388 kts | 135° |
| 2026-05-07 16:59 | 49.08614 | 10.33044 | 21076 ft | 388 kts | 135° |
| 2026-05-07 16:59 | 49.06743 | 10.36015 | 21078 ft | 389 kts | 135° |
| 2026-05-07 17:00 | 49.04867 | 10.38991 | 21059 ft | 389 kts | 136° |
| 2026-05-07 17:00 | 49.02997 | 10.41965 | 21064 ft | 389 kts | 136° |
| 2026-05-07 17:00 | 49.01128 | 10.44948 | 21076 ft | 389 kts | 136° |
| 2026-05-07 17:00 | 48.99261 | 10.47934 | 21080 ft | 389 kts | 136° |
| 2026-05-07 17:01 | 48.97392 | 10.50919 | 21083 ft | 389 kts | 136° |
| 2026-05-07 17:01 | 48.95521 | 10.53901 | 21089 ft | 389 kts | 136° |
| 2026-05-07 17:01 | 48.93654 | 10.56876 | 21086 ft | 389 kts | 136° |
| 2026-05-07 17:01 | 48.91779 | 10.59863 | 21087 ft | 390 kts | 135° |
| 2026-05-07 17:02 | 48.89931 | 10.62805 | 21081 ft | 390 kts | 135° |
| 2026-05-07 17:02 | 48.88075 | 10.65757 | 20890 ft | 382 kts | 136° |
| 2026-05-07 17:02 | 48.86264 | 10.68633 | 20635 ft | 371 kts | 136° |
| 2026-05-07 17:02 | 48.84490 | 10.71440 | 20373 ft | 366 kts | 136° |
| 2026-05-07 17:03 | 48.82731 | 10.74217 | 20119 ft | 364 kts | 136° |
| 2026-05-07 17:03 | 48.80986 | 10.76972 | 19871 ft | 358 kts | 136° |
| 2026-05-07 17:03 | 48.79269 | 10.79683 | 19472 ft | 354 kts | 136° |
| 2026-05-07 17:03 | 48.77565 | 10.82369 | 19076 ft | 350 kts | 136° |
| 2026-05-07 17:04 | 48.75883 | 10.85013 | 18673 ft | 347 kts | 136° |
| 2026-05-07 17:04 | 48.74769 | 10.86754 | 18403 ft | 345 kts | 136° |
| 2026-05-07 17:04 | 48.72563 | 10.90191 | 17844 ft | 340 kts | 136° |
| 2026-05-07 17:04 | 48.70928 | 10.92740 | 17455 ft | 335 kts | 136° |
| 2026-05-07 17:05 | 48.69314 | 10.95262 | 17075 ft | 331 kts | 137° |
| 2026-05-07 17:05 | 48.67725 | 10.97747 | 16687 ft | 327 kts | 137° |
| 2026-05-07 17:05 | 48.66679 | 10.99379 | 16431 ft | 325 kts | 137° |
| 2026-05-07 17:05 | 48.65111 | 11.01823 | 16069 ft | 321 kts | 137° |
| 2026-05-07 17:06 | 48.63555 | 11.04240 | 15696 ft | 318 kts | 137° |
| 2026-05-07 17:06 | 48.62013 | 11.06630 | 15332 ft | 315 kts | 137° |
| 2026-05-07 17:06 | 48.60491 | 11.08989 | 14971 ft | 312 kts | 137° |
| 2026-05-07 17:06 | 48.58997 | 11.11304 | 14614 ft | 310 kts | 137° |
| 2026-05-07 17:07 | 48.57409 | 11.13469 | 14259 ft | 304 kts | 147° |
| 2026-05-07 17:07 | 48.55663 | 11.15263 | 13874 ft | 302 kts | 149° |
| 2026-05-07 17:07 | 48.54036 | 11.17265 | 13468 ft | 304 kts | 135° |
| 2026-05-07 17:07 | 48.52869 | 11.19875 | 13093 ft | 304 kts | 116° |
| 2026-05-07 17:08 | 48.52262 | 11.22967 | 13024 ft | 318 kts | 98° |
| 2026-05-07 17:08 | 48.52295 | 11.26350 | 13031 ft | 326 kts | 79° |
| 2026-05-07 17:08 | 48.52766 | 11.29707 | 13035 ft | 329 kts | 77° |
| 2026-05-07 17:08 | 48.53205 | 11.33100 | 13024 ft | 330 kts | 85° |
| 2026-05-07 17:09 | 48.53138 | 11.36560 | 13034 ft | 330 kts | 95° |
| 2026-05-07 17:09 | 48.52996 | 11.40021 | 13029 ft | 330 kts | 94° |
| 2026-05-07 17:09 | 48.52880 | 11.43487 | 13030 ft | 331 kts | 93° |
| 2026-05-07 17:09 | 48.52773 | 11.46949 | 13031 ft | 331 kts | 93° |
| 2026-05-07 17:10 | 48.52667 | 11.50412 | 13031 ft | 331 kts | 93° |
| 2026-05-07 17:10 | 48.52556 | 11.53840 | 13030 ft | 331 kts | 93° |
| 2026-05-07 17:10 | 48.52442 | 11.57298 | 12771 ft | 328 kts | 93° |
| 2026-05-07 17:10 | 48.52328 | 11.60716 | 12317 ft | 326 kts | 93° |
| 2026-05-07 17:11 | 48.52215 | 11.64122 | 11877 ft | 324 kts | 94° |
| 2026-05-07 17:11 | 48.52103 | 11.67502 | 11474 ft | 322 kts | 94° |
| 2026-05-07 17:11 | 48.51991 | 11.70864 | 11090 ft | 320 kts | 94° |
| 2026-05-07 17:11 | 48.51878 | 11.74211 | 10713 ft | 317 kts | 94° |
| 2026-05-07 17:12 | 48.51770 | 11.77520 | 10383 ft | 313 kts | 94° |
| 2026-05-07 17:12 | 48.51668 | 11.80726 | 10106 ft | 308 kts | 94° |
| 2026-05-07 17:12 | 48.51570 | 11.83928 | 9575 ft | 302 kts | 93° |
| 2026-05-07 17:12 | 48.51470 | 11.87075 | 8852 ft | 299 kts | 93° |
| 2026-05-07 17:13 | 48.51362 | 11.90195 | 8153 ft | 297 kts | 93° |
| 2026-05-07 17:13 | 48.51247 | 11.93292 | 7514 ft | 293 kts | 93° |
| 2026-05-07 17:13 | 48.51127 | 11.96368 | 6938 ft | 293 kts | 94° |
| 2026-05-07 17:13 | 48.51002 | 11.99382 | 6502 ft | 290 kts | 94° |
| 2026-05-07 17:14 | 48.50793 | 12.02390 | 6020 ft | 286 kts | 105° |
| 2026-05-07 17:14 | 48.49894 | 12.05004 | 5561 ft | 279 kts | 134° |
| 2026-05-07 17:14 | 48.48359 | 12.06724 | 5103 ft | 272 kts | 155° |
| 2026-05-07 17:14 | 48.46647 | 12.07855 | 4665 ft | 262 kts | 161° |
| 2026-05-07 17:15 | 48.44986 | 12.08815 | 4222 ft | 249 kts | 161° |
| 2026-05-07 17:15 | 48.43443 | 12.09682 | 4030 ft | 229 kts | 162° |
| 2026-05-07 17:15 | 48.41890 | 12.10061 | 4023 ft | 222 kts | 186° |
| 2026-05-07 17:15 | 48.40460 | 12.09507 | 4030 ft | 207 kts | 209° |
| 2026-05-07 17:16 | 48.39338 | 12.08242 | 4041 ft | 200 kts | 231° |
| 2026-05-07 17:16 | 48.38625 | 12.06489 | 4033 ft | 195 kts | 251° |
| 2026-05-07 17:16 | 48.38365 | 12.04514 | 4029 ft | 192 kts | 266° |
| 2026-05-07 17:16 | 48.38220 | 12.02532 | 4025 ft | 186 kts | 266° |
| 2026-05-07 17:17 | 48.38078 | 12.00608 | 3889 ft | 183 kts | 265° |
| 2026-05-07 17:17 | 48.37939 | 11.98743 | 3682 ft | 175 kts | 265° |
| 2026-05-07 17:17 | 48.37808 | 11.96993 | 3475 ft | 163 kts | 265° |
| 2026-05-07 17:17 | 48.37686 | 11.95368 | 3262 ft | 151 kts | 266° |
| 2026-05-07 17:18 | 48.37573 | 11.93858 | 3072 ft | 145 kts | 265° |
| 2026-05-07 17:18 | 48.37461 | 11.92367 | 2881 ft | 143 kts | 265° |
| 2026-05-07 17:18 | 48.37350 | 11.90881 | 2682 ft | 144 kts | 265° |
| 2026-05-07 17:18 | 48.37236 | 11.89368 | 2480 ft | 145 kts | 265° |
| 2026-05-07 17:19 | 48.37123 | 11.87873 | 2239 ft | 145 kts | 268° |
| 2026-05-07 17:19 | 48.37011 | 11.86325 | 2088 ft | 150 kts | 267° |
| 2026-05-07 17:19 | 48.36883 | 11.84746 | 1895 ft | 155 kts | 269° |
| 2026-05-07 17:19 | 48.36762 | 11.82895 | 2196 ft | 192 kts | 268° |
| 2026-05-07 17:20 | 48.36656 | 11.80799 | 2953 ft | 204 kts | 268° |
| 2026-05-07 17:20 | 48.36903 | 11.78692 | 3459 ft | 212 kts | 297° |
| 2026-05-07 17:20 | 48.37956 | 11.77119 | 4045 ft | 220 kts | 333° |
| 2026-05-07 17:20 | 48.39468 | 11.76707 | 4772 ft | 228 kts | 4° |
| 2026-05-07 17:21 | 48.40958 | 11.77524 | 4975 ft | 239 kts | 34° |
| 2026-05-07 17:21 | 48.42096 | 11.79372 | 5029 ft | 243 kts | 52° |
| 2026-05-07 17:21 | 48.43065 | 11.81468 | 5035 ft | 244 kts | 54° |
| 2026-05-07 17:21 | 48.44007 | 11.83597 | 5037 ft | 244 kts | 54° |
| 2026-05-07 17:22 | 48.44942 | 11.85734 | 5034 ft | 244 kts | 54° |
| 2026-05-07 17:22 | 48.45877 | 11.87865 | 5034 ft | 243 kts | 54° |
| 2026-05-07 17:22 | 48.46813 | 11.89992 | 5039 ft | 244 kts | 54° |
| 2026-05-07 17:22 | 48.47735 | 11.92115 | 5032 ft | 245 kts | 55° |
| 2026-05-07 17:23 | 48.48671 | 11.94273 | 5031 ft | 246 kts | 54° |
| 2026-05-07 17:23 | 48.49606 | 11.96439 | 5030 ft | 246 kts | 54° |
| 2026-05-07 17:23 | 48.50532 | 11.98582 | 5028 ft | 246 kts | 54° |
| 2026-05-07 17:23 | 48.51459 | 12.00751 | 5026 ft | 246 kts | 58° |
| 2026-05-07 17:24 | 48.51922 | 12.03209 | 5015 ft | 248 kts | 90° |
| 2026-05-07 17:24 | 48.51668 | 12.05794 | 5018 ft | 250 kts | 103° |
| 2026-05-07 17:24 | 48.51247 | 12.08339 | 5025 ft | 250 kts | 104° |
| 2026-05-07 17:24 | 48.50809 | 12.10883 | 5023 ft | 249 kts | 104° |
| 2026-05-07 17:25 | 48.50378 | 12.13382 | 5023 ft | 249 kts | 104° |
| 2026-05-07 17:25 | 48.49937 | 12.15909 | 5020 ft | 249 kts | 105° |
| 2026-05-07 17:25 | 48.49185 | 12.18236 | 5017 ft | 247 kts | 134° |
| 2026-05-07 17:25 | 48.47788 | 12.19661 | 5014 ft | 242 kts | 165° |
| 2026-05-07 17:26 | 48.46140 | 12.20231 | 5019 ft | 242 kts | 173° |
| 2026-05-07 17:26 | 48.44496 | 12.20610 | 5018 ft | 241 kts | 178° |
| 2026-05-07 17:26 | 48.42884 | 12.20252 | 5008 ft | 234 kts | 209° |
| 2026-05-07 17:26 | 48.41634 | 12.18739 | 5020 ft | 229 kts | 231° |
| 2026-05-07 17:27 | 48.40628 | 12.16904 | 5023 ft | 229 kts | 234° |
| 2026-05-07 17:27 | 48.39652 | 12.15010 | 5022 ft | 229 kts | 236° |
| 2026-05-07 17:27 | 48.38992 | 12.12853 | 5026 ft | 228 kts | 261° |
| 2026-05-07 17:27 | 48.38799 | 12.10488 | 5027 ft | 227 kts | 265° |
| 2026-05-07 17:28 | 48.38634 | 12.08119 | 4872 ft | 226 kts | 265° |
| 2026-05-07 17:28 | 48.38465 | 12.05810 | 4607 ft | 217 kts | 265° |
| 2026-05-07 17:28 | 48.38303 | 12.03632 | 4326 ft | 207 kts | 265° |
| 2026-05-07 17:28 | 48.38146 | 12.01523 | 4060 ft | 199 kts | 265° |
| 2026-05-07 17:29 | 48.37997 | 11.99520 | 3802 ft | 186 kts | 265° |
| 2026-05-07 17:29 | 48.37858 | 11.97663 | 3570 ft | 172 kts | 265° |
| 2026-05-07 17:29 | 48.37729 | 11.95938 | 3339 ft | 158 kts | 265° |
| 2026-05-07 17:29 | 48.37610 | 11.94353 | 3126 ft | 149 kts | 265° |
| 2026-05-07 17:30 | 48.37496 | 11.92829 | 2932 ft | 144 kts | 266° |
| 2026-05-07 17:30 | 48.37384 | 11.91328 | 2744 ft | 146 kts | 265° |
| 2026-05-07 17:30 | 48.37279 | 11.89794 | 2526 ft | 147 kts | 267° |
| 2026-05-07 17:30 | 48.37153 | 11.88282 | 2333 ft | 145 kts | 266° |
| 2026-05-07 17:31 | 48.37035 | 11.86752 | 2147 ft | 148 kts | 267° |
| 2026-05-07 17:31 | 48.36916 | 11.85201 | 1932 ft | 151 kts | 268° |
| 2026-05-07 17:31 | 48.36801 | 11.83633 | 1737 ft | 150 kts | 267° |
| 2026-05-07 17:31 | 48.36682 | 11.82084 | 1517 ft | 149 kts | 266° |
| 2026-05-07 17:32 | 48.36577 | 11.80652 | 1484 ft | 124 kts | 263° |
| 2026-05-07 17:32 | 48.36497 | 11.79588 | 1476 ft | 78 kts | 263° |
| 2026-05-07 17:32 | 48.36435 | 11.79013 | 1481 ft | 43 kts | 250° |
| 2026-05-07 17:32 | 48.36323 | 11.78751 | 1478 ft | 26 kts | 234° |
| 2026-05-07 17:33 | 48.36219 | 11.78532 | 1474 ft | 18 kts | 233° |
| 2026-05-07 17:33 | 48.36195 | 11.78490 | 1478 ft | 4 kts | 227° |
| 2026-05-07 17:33 | 48.36169 | 11.78463 | 1483 ft | 5 kts | 191° |
| 2026-05-07 17:33 | 48.36121 | 11.78477 | 1481 ft | 10 kts | 164° |
| 2026-05-07 17:34 | 48.36056 | 11.78500 | 1478 ft | 9 kts | 156° |
| 2026-05-07 17:34 | 48.36037 | 11.78597 | 1479 ft | 13 kts | 83° |
| 2026-05-07 17:34 | 48.36050 | 11.78755 | 1477 ft | 17 kts | 83° |
| 2026-05-07 17:34 | 48.36064 | 11.78940 | 1473 ft | 19 kts | 83° |
| 2026-05-07 17:35 | 48.36079 | 11.79147 | 1475 ft | 21 kts | 83° |
| 2026-05-07 17:35 | 48.36083 | 11.79197 | 1485 ft | 3 kts | 83° |
| 2026-05-07 17:35 | 48.36086 | 11.79236 | 1483 ft | 1 kts | 83° |
| 2026-05-07 17:35 | 48.36087 | 11.79255 | 1479 ft | 3 kts | 83° |
| 2026-05-07 17:36 | 48.36087 | 11.79259 | 1480 ft | 0 kts | 94° |
| 2026-05-07 17:36 | 48.36077 | 11.79274 | 1475 ft | 6 kts | 144° |
| 2026-05-07 17:36 | 48.36028 | 11.79223 | 1474 ft | 12 kts | 234° |
| 2026-05-07 17:36 | 48.35965 | 11.79149 | 1483 ft | 12 kts | 183° |
| 2026-05-07 17:37 | 48.35919 | 11.79247 | 1475 ft | 13 kts | 107° |
| 2026-05-07 17:37 | 48.35867 | 11.79370 | 1482 ft | 15 kts | 147° |
| 2026-05-07 17:37 | 48.35760 | 11.79401 | 1475 ft | 16 kts | 174° |
| 2026-05-07 17:37 | 48.35701 | 11.79376 | 1476 ft | 9 kts | 243° |
| 2026-05-07 17:38 | 48.35690 | 11.79276 | 1485 ft | 8 kts | 263° |
| 2026-05-07 17:38 | 48.35689 | 11.79259 | 1480 ft | 0 kts | 263° |